createdAt,value
2023-03-15T00:00:26.914Z,1002.85
2023-03-15T00:01:26.897Z,1002.89
2023-03-15T00:02:26.908Z,1002.96
2023-03-15T00:03:26.924Z,1002.93
2023-03-15T00:04:26.865Z,1002.93
2023-03-15T00:05:26.857Z,1002.95
2023-03-15T00:06:26.845Z,1003.01
2023-03-15T00:07:26.859Z,1003.07
2023-03-15T00:08:26.848Z,1003.06
2023-03-15T00:09:26.822Z,1003.08
2023-03-15T00:10:26.795Z,1003.10
2023-03-15T00:11:26.796Z,1003.14
2023-03-15T00:12:26.781Z,1003.20
2023-03-15T00:13:26.793Z,1003.12
2023-03-15T00:14:26.779Z,1003.14
2023-03-15T00:15:26.762Z,1003.23
2023-03-15T00:16:26.737Z,1003.23
2023-03-15T00:17:26.728Z,1003.22
2023-03-15T00:18:26.712Z,1003.18
2023-03-15T00:19:26.755Z,1003.23
2023-03-15T00:20:26.719Z,1003.20
2023-03-15T00:21:26.697Z,1003.19
2023-03-15T00:22:26.665Z,1003.25
2023-03-15T00:23:26.684Z,1003.23
2023-03-15T00:24:26.669Z,1003.23
2023-03-15T00:25:26.665Z,1003.29
2023-03-15T00:26:26.624Z,1003.27
2023-03-15T00:27:26.621Z,1003.27
2023-03-15T00:28:26.636Z,1003.32
2023-03-15T00:29:26.600Z,1003.33
2023-03-15T00:30:26.589Z,1003.36
2023-03-15T00:31:26.608Z,1003.45
2023-03-15T00:32:26.589Z,1003.48
2023-03-15T00:33:26.592Z,1003.45
2023-03-15T00:34:26.563Z,1003.47
2023-03-15T00:35:26.548Z,1003.51
2023-03-15T00:36:26.538Z,1003.56
2023-03-15T00:37:26.528Z,1003.58
2023-03-15T00:38:26.499Z,1003.59
2023-03-15T00:39:26.542Z,1003.65
2023-03-15T00:40:26.478Z,1003.62
2023-03-15T00:41:26.486Z,1003.66
2023-03-15T00:42:26.469Z,1003.65
2023-03-15T00:43:26.452Z,1003.64
2023-03-15T00:44:26.464Z,1003.61
2023-03-15T00:45:26.424Z,1003.62
2023-03-15T00:46:26.427Z,1003.64
2023-03-15T00:47:26.412Z,1003.62
2023-03-15T00:48:26.394Z,1003.68
2023-03-15T00:49:26.427Z,1003.69
2023-03-15T00:50:26.395Z,1003.69
2023-03-15T00:51:26.395Z,1003.74
2023-03-15T00:52:26.362Z,1003.73
2023-03-15T00:53:26.339Z,1003.84
2023-03-15T00:54:26.329Z,1003.81
2023-03-15T00:55:26.350Z,1003.78
2023-03-15T00:56:26.346Z,1003.79
2023-03-15T00:57:26.325Z,1003.82
2023-03-15T00:58:27.553Z,1003.83
2023-03-15T00:59:26.280Z,1003.78
2023-03-15T01:00:26.269Z,1003.77
2023-03-15T01:01:26.349Z,1003.81
2023-03-15T01:02:26.323Z,1003.85
2023-03-15T01:03:26.239Z,1003.86
2023-03-15T01:04:26.222Z,1003.76
2023-03-15T01:05:26.219Z,1003.88
2023-03-15T01:06:26.223Z,1003.89
2023-03-15T01:07:26.221Z,1003.95
2023-03-15T01:08:26.186Z,1003.91
2023-03-15T01:09:26.202Z,1003.91
2023-03-15T01:10:26.159Z,1003.94
2023-03-15T01:11:26.178Z,1003.96
2023-03-15T01:12:26.167Z,1003.98
2023-03-15T01:13:26.126Z,1003.93
2023-03-15T01:14:26.116Z,1003.99
2023-03-15T01:15:26.108Z,1003.95
2023-03-15T01:16:26.179Z,1004.04
2023-03-15T01:17:26.100Z,1004.03
2023-03-15T01:18:26.079Z,1004.06
2023-03-15T01:19:26.057Z,1003.98
2023-03-15T01:20:26.051Z,1004.12
2023-03-15T01:21:26.065Z,1004.10
2023-03-15T01:22:26.041Z,1004.13
2023-03-15T01:23:26.019Z,1004.15
2023-03-15T01:24:26.011Z,1004.13
2023-03-15T01:25:26.013Z,1004.15
2023-03-15T01:26:25.999Z,1004.16
2023-03-15T01:27:25.996Z,1004.17
2023-03-15T01:28:26.012Z,1004.17
2023-03-15T01:29:25.955Z,1004.16
2023-03-15T01:30:25.946Z,1004.17
2023-03-15T01:31:26.008Z,1004.19
2023-03-15T01:32:25.955Z,1004.21
2023-03-15T01:33:25.911Z,1004.16
2023-03-15T01:34:25.925Z,1004.15
2023-03-15T01:35:25.889Z,1004.20
2023-03-15T01:36:25.902Z,1004.29
2023-03-15T01:37:25.896Z,1004.24
2023-03-15T01:38:25.861Z,1004.28
2023-03-15T01:39:25.868Z,1004.31
2023-03-15T01:40:25.842Z,1004.25
2023-03-15T01:41:25.872Z,1004.25
2023-03-15T01:42:25.841Z,1004.35
2023-03-15T01:43:25.844Z,1004.35
2023-03-15T01:44:25.801Z,1004.31
2023-03-15T01:45:25.786Z,1004.37
2023-03-15T01:46:25.833Z,1004.36
2023-03-15T01:47:25.804Z,1004.34
2023-03-15T01:48:25.766Z,1004.38
2023-03-15T01:49:25.769Z,1004.35
2023-03-15T01:50:25.737Z,1004.32
2023-03-15T01:51:25.740Z,1004.40
2023-03-15T01:52:25.744Z,1004.41
2023-03-15T01:53:25.703Z,1004.44
2023-03-15T01:54:25.695Z,1004.40
2023-03-15T01:55:25.683Z,1004.43
2023-03-15T01:56:25.700Z,1004.39
2023-03-15T01:57:25.680Z,1004.50
2023-03-15T01:58:25.651Z,1004.50
2023-03-15T01:59:25.663Z,1004.55
2023-03-15T02:00:25.630Z,1004.40
2023-03-15T02:01:25.626Z,1004.46
2023-03-15T02:02:25.696Z,1004.46
2023-03-15T02:03:25.618Z,1004.47
2023-03-15T02:04:25.583Z,1004.49
2023-03-15T02:05:25.606Z,1004.50
2023-03-15T02:06:25.574Z,1004.49
2023-03-15T02:07:25.550Z,1004.53
2023-03-15T02:08:25.542Z,1004.47
2023-03-15T02:09:25.524Z,1004.51
2023-03-15T02:10:25.525Z,1004.54
2023-03-15T02:11:25.535Z,1004.50
2023-03-15T02:12:25.498Z,1004.50
2023-03-15T02:13:25.497Z,1004.57
2023-03-15T02:14:25.478Z,1004.51
2023-03-15T02:15:25.489Z,1004.64
2023-03-15T02:16:25.607Z,1004.57
2023-03-15T02:17:25.442Z,1004.53
2023-03-15T02:18:25.434Z,1004.57
2023-03-15T02:19:25.456Z,1004.55
2023-03-15T02:20:25.415Z,1004.60
2023-03-15T02:21:25.400Z,1004.59
2023-03-15T02:22:25.423Z,1004.57
2023-03-15T02:23:25.413Z,1004.61
2023-03-15T02:24:25.371Z,1004.64
2023-03-15T02:25:25.354Z,1004.60
2023-03-15T02:26:25.346Z,1004.62
2023-03-15T02:27:25.397Z,1004.61
2023-03-15T02:28:25.349Z,1004.59
2023-03-15T02:29:25.322Z,1004.64
2023-03-15T02:30:25.305Z,1004.73
2023-03-15T02:31:25.351Z,1004.68
2023-03-15T02:32:25.328Z,1004.67
2023-03-15T02:33:25.292Z,1004.67
2023-03-15T02:34:25.289Z,1004.79
2023-03-15T02:35:25.249Z,1004.82
2023-03-15T02:36:25.250Z,1004.78
2023-03-15T02:37:25.225Z,1004.81
2023-03-15T02:38:25.247Z,1004.78
2023-03-15T02:39:25.227Z,1004.76
2023-03-15T02:40:25.207Z,1004.77
2023-03-15T02:41:25.190Z,1004.76
2023-03-15T02:42:25.175Z,1004.80
2023-03-15T02:43:25.216Z,1004.81
2023-03-15T02:44:25.194Z,1004.83
2023-03-15T02:45:25.149Z,1004.79
2023-03-15T02:46:25.218Z,1004.85
2023-03-15T02:47:25.146Z,1004.89
2023-03-15T02:48:25.140Z,1004.92
2023-03-15T02:49:25.100Z,1004.89
2023-03-15T02:50:25.094Z,1004.90
2023-03-15T02:51:25.077Z,1004.89
2023-03-15T02:52:25.072Z,1004.98
2023-03-15T02:53:25.054Z,1005.01
2023-03-15T02:54:25.120Z,1004.97
2023-03-15T02:55:25.035Z,1005.08
2023-03-15T02:56:25.030Z,1005.03
2023-03-15T02:57:25.030Z,1005.03
2023-03-15T02:58:25.006Z,1005.05
2023-03-15T02:59:25.020Z,1005.05
2023-03-15T03:00:25.005Z,1005.14
2023-03-15T03:01:25.016Z,1005.09
2023-03-15T03:02:25.034Z,1005.11
2023-03-15T03:03:24.976Z,1005.13
2023-03-15T03:04:24.970Z,1005.15
2023-03-15T03:05:24.932Z,1005.17
2023-03-15T03:06:24.935Z,1005.13
2023-03-15T03:07:24.930Z,1005.11
2023-03-15T03:08:24.900Z,1005.15
2023-03-15T03:09:24.911Z,1005.22
2023-03-15T03:10:24.879Z,1005.27
2023-03-15T03:11:24.886Z,1005.19
2023-03-15T03:12:24.860Z,1005.26
2023-03-15T03:13:24.846Z,1005.26
2023-03-15T03:14:24.855Z,1005.24
2023-03-15T03:15:24.821Z,1005.30
2023-03-15T03:16:24.863Z,1005.26
2023-03-15T03:17:24.800Z,1005.33
2023-03-15T03:18:24.795Z,1005.30
2023-03-15T03:19:24.794Z,1005.35
2023-03-15T03:20:24.786Z,1005.32
2023-03-15T03:21:24.761Z,1005.38
2023-03-15T03:22:24.748Z,1005.35
2023-03-15T03:23:24.728Z,1005.34
2023-03-15T03:24:24.723Z,1005.44
2023-03-15T03:25:24.733Z,1005.46
2023-03-15T03:26:24.705Z,1005.42
2023-03-15T03:27:24.712Z,1005.42
2023-03-15T03:28:24.682Z,1005.47
2023-03-15T03:29:24.662Z,1005.45
2023-03-15T03:30:24.656Z,1005.47
2023-03-15T03:31:24.638Z,1005.45
2023-03-15T03:32:24.661Z,1005.50
2023-03-15T03:33:24.617Z,1005.46
2023-03-15T03:34:24.613Z,1005.57
2023-03-15T03:35:24.645Z,1005.49
2023-03-15T03:36:24.597Z,1005.57
2023-03-15T03:37:24.601Z,1005.54
2023-03-15T03:38:24.576Z,1005.57
2023-03-15T03:39:24.554Z,1005.60
2023-03-15T03:40:24.566Z,1005.60
2023-03-15T03:41:24.539Z,1005.57
2023-03-15T03:42:24.548Z,1005.59
2023-03-15T03:43:24.506Z,1005.61
2023-03-15T03:44:24.513Z,1005.63
2023-03-15T03:45:24.520Z,1005.66
2023-03-15T03:46:24.537Z,1005.68
2023-03-15T03:47:24.486Z,1005.77
2023-03-15T03:48:24.457Z,1005.74
2023-03-15T03:49:24.444Z,1005.69
2023-03-15T03:50:24.445Z,1005.75
2023-03-15T03:51:24.447Z,1005.73
2023-03-15T03:52:24.440Z,1005.72
2023-03-15T03:53:24.400Z,1005.79
2023-03-15T03:54:24.416Z,1005.74
2023-03-15T03:55:24.380Z,1005.77
2023-03-15T03:56:24.371Z,1005.80
2023-03-15T03:57:24.359Z,1005.82
2023-03-15T03:58:24.348Z,1005.81
2023-03-15T03:59:24.364Z,1005.84
2023-03-15T04:00:24.356Z,1005.79
2023-03-15T04:01:24.315Z,1005.80
2023-03-15T04:02:24.383Z,1005.81
2023-03-15T04:03:24.297Z,1005.87
2023-03-15T04:04:24.320Z,1005.89
2023-03-15T04:05:24.274Z,1005.81
2023-03-15T04:06:24.264Z,1005.90
2023-03-15T04:07:24.355Z,1005.84
2023-03-15T04:08:24.267Z,1005.87
2023-03-15T04:09:24.253Z,1005.89
2023-03-15T04:10:24.219Z,1005.86
2023-03-15T04:11:24.209Z,1005.86
2023-03-15T04:12:24.220Z,1005.88
2023-03-15T04:13:24.214Z,1005.87
2023-03-15T04:14:24.209Z,1005.90
2023-03-15T04:15:24.161Z,1005.89
2023-03-15T04:16:24.195Z,1005.94
2023-03-15T04:17:24.142Z,1005.97
2023-03-15T04:18:24.137Z,1005.99
2023-03-15T04:19:24.138Z,1005.97
2023-03-15T04:20:24.155Z,1006.04
2023-03-15T04:21:24.106Z,1006.00
2023-03-15T04:22:24.093Z,1006.03
2023-03-15T04:23:24.108Z,1006.01
2023-03-15T04:24:24.069Z,1006.15
2023-03-15T04:25:24.060Z,1006.09
2023-03-15T04:26:24.076Z,1006.14
2023-03-15T04:27:24.035Z,1006.18
2023-03-15T04:28:24.032Z,1006.22
2023-03-15T04:29:24.014Z,1006.19
2023-03-15T04:30:24.003Z,1006.18
2023-03-15T04:31:24.069Z,1006.17
2023-03-15T04:32:24.058Z,1006.19
2023-03-15T04:33:23.976Z,1006.18
2023-03-15T04:34:23.974Z,1006.23
2023-03-15T04:35:23.956Z,1006.19
2023-03-15T04:36:24.010Z,1006.18
2023-03-15T04:37:23.937Z,1006.14
2023-03-15T04:38:23.923Z,1006.16
2023-03-15T04:39:23.942Z,1006.17
2023-03-15T04:40:23.907Z,1006.14
2023-03-15T04:41:23.924Z,1006.15
2023-03-15T04:42:23.890Z,1006.22
2023-03-15T04:43:23.875Z,1006.13
2023-03-15T04:44:23.881Z,1006.20
2023-03-15T04:45:23.851Z,1006.19
2023-03-15T04:46:25.049Z,1006.15
2023-03-15T04:47:23.875Z,1006.22
2023-03-15T04:48:23.832Z,1006.19
2023-03-15T04:49:23.839Z,1006.19
2023-03-15T04:50:23.801Z,1006.20
2023-03-15T04:51:23.790Z,1006.28
2023-03-15T04:52:23.783Z,1006.32
2023-03-15T04:53:23.780Z,1006.33
2023-03-15T04:54:23.785Z,1006.30
2023-03-15T04:55:23.862Z,1006.31
2023-03-15T04:56:23.742Z,1006.30
2023-03-15T04:57:23.726Z,1006.32
2023-03-15T04:58:23.725Z,1006.37
2023-03-15T04:59:23.710Z,1006.37
2023-03-15T05:00:23.698Z,1006.40
2023-03-15T05:01:23.711Z,1006.39
2023-03-15T05:02:23.719Z,1006.39
2023-03-15T05:03:23.662Z,1006.42
2023-03-15T05:04:23.678Z,1006.44
2023-03-15T05:05:23.666Z,1006.50
2023-03-15T05:06:23.659Z,1006.43
2023-03-15T05:07:23.614Z,1006.42
2023-03-15T05:08:23.628Z,1006.51
2023-03-15T05:09:23.596Z,1006.51
2023-03-15T05:10:23.577Z,1006.53
2023-03-15T05:11:23.622Z,1006.53
2023-03-15T05:12:23.566Z,1006.56
2023-03-15T05:13:23.563Z,1006.58
2023-03-15T05:14:23.547Z,1006.56
2023-03-15T05:15:23.556Z,1006.59
2023-03-15T05:16:23.582Z,1006.60
2023-03-15T05:17:23.504Z,1006.59
2023-03-15T05:18:23.506Z,1006.62
2023-03-15T05:19:23.546Z,1006.59
2023-03-15T05:20:23.496Z,1006.67
2023-03-15T05:21:23.503Z,1006.64
2023-03-15T05:22:23.472Z,1006.69
2023-03-15T05:23:23.472Z,1006.72
2023-03-15T05:24:23.441Z,1006.73
2023-03-15T05:25:23.426Z,1006.75
2023-03-15T05:26:23.413Z,1006.73
2023-03-15T05:27:23.463Z,1006.73
2023-03-15T05:28:23.393Z,1006.76
2023-03-15T05:29:23.451Z,1006.81
2023-03-15T05:30:23.372Z,1006.83
2023-03-15T05:31:23.386Z,1006.81
2023-03-15T05:32:23.389Z,1006.93
2023-03-15T05:33:23.365Z,1006.91
2023-03-15T05:34:23.366Z,1006.94
2023-03-15T05:35:23.349Z,1006.96
2023-03-15T05:36:23.303Z,1006.97
2023-03-15T05:37:23.330Z,1006.99
2023-03-15T05:38:23.285Z,1007.00
2023-03-15T05:39:23.283Z,1007.04
2023-03-15T05:40:23.259Z,1007.08
2023-03-15T05:41:23.249Z,1007.06
2023-03-15T05:42:23.236Z,1007.11
2023-03-15T05:43:23.277Z,1007.09
2023-03-15T05:44:23.220Z,1007.14
2023-03-15T05:45:23.209Z,1007.13
2023-03-15T05:46:23.197Z,1007.18
2023-03-15T05:47:23.194Z,1007.17
2023-03-15T05:48:23.201Z,1007.24
2023-03-15T05:49:23.218Z,1007.23
2023-03-15T05:50:23.161Z,1007.20
2023-03-15T05:51:23.145Z,1007.26
2023-03-15T05:52:23.137Z,1007.34
2023-03-15T05:53:23.156Z,1007.28
2023-03-15T05:54:23.108Z,1007.27
2023-03-15T05:55:23.111Z,1007.30
2023-03-15T05:56:23.087Z,1007.30
2023-03-15T05:57:23.081Z,1007.33
2023-03-15T05:58:23.093Z,1007.35
2023-03-15T05:59:23.088Z,1007.39
2023-03-15T06:00:23.042Z,1007.44
2023-03-15T06:01:23.037Z,1007.40
2023-03-15T06:02:23.031Z,1007.42
2023-03-15T06:03:23.069Z,1007.42
2023-03-15T06:04:23.027Z,1007.49
2023-03-15T06:05:22.998Z,1007.49
2023-03-15T06:06:22.979Z,1007.50
2023-03-15T06:07:22.987Z,1007.50
2023-03-15T06:08:22.986Z,1007.51
2023-03-15T06:09:22.969Z,1007.59
2023-03-15T06:10:22.943Z,1007.57
2023-03-15T06:11:22.945Z,1007.58
2023-03-15T06:12:22.947Z,1007.63
2023-03-15T06:13:22.907Z,1007.61
2023-03-15T06:14:22.893Z,1007.66
2023-03-15T06:15:22.965Z,1007.65
2023-03-15T06:16:22.894Z,1007.73
2023-03-15T06:17:22.888Z,1007.69
2023-03-15T06:18:22.877Z,1007.69
2023-03-15T06:19:22.844Z,1007.75
2023-03-15T06:20:22.836Z,1007.75
2023-03-15T06:21:22.825Z,1007.80
2023-03-15T06:22:22.808Z,1007.82
2023-03-15T06:23:22.821Z,1007.81
2023-03-15T06:24:22.788Z,1007.82
2023-03-15T06:25:22.784Z,1007.90
2023-03-15T06:26:22.764Z,1007.86
2023-03-15T06:27:22.762Z,1007.88
2023-03-15T06:28:22.766Z,1007.86
2023-03-15T06:29:22.735Z,1007.92
2023-03-15T06:30:22.727Z,1007.89
2023-03-15T06:31:22.739Z,1007.87
2023-03-15T06:32:22.746Z,1007.91
2023-03-15T06:33:22.720Z,1007.88
2023-03-15T06:34:22.677Z,1007.89
2023-03-15T06:35:22.699Z,1008.01
2023-03-15T06:36:22.658Z,1007.99
2023-03-15T06:37:34.517Z,1008.05
2023-03-15T06:38:23.636Z,1008.09
2023-03-15T06:39:22.633Z,1008.03
2023-03-15T06:40:22.657Z,1008.09
2023-03-15T06:41:22.637Z,1008.18
2023-03-15T06:42:22.597Z,1008.13
2023-03-15T06:43:22.597Z,1008.12
2023-03-15T06:44:22.566Z,1008.17
2023-03-15T06:45:22.594Z,1008.24
2023-03-15T06:46:22.585Z,1008.19
2023-03-15T06:47:22.562Z,1008.18
2023-03-15T06:48:22.529Z,1008.18
2023-03-15T06:49:22.517Z,1008.23
2023-03-15T06:50:22.525Z,1008.25
2023-03-15T06:51:22.524Z,1008.26
2023-03-15T06:52:22.487Z,1008.31
2023-03-15T06:53:22.500Z,1008.34
2023-03-15T06:54:22.458Z,1008.28
2023-03-15T06:55:22.460Z,1008.33
2023-03-15T06:56:22.466Z,1008.30
2023-03-15T06:57:22.437Z,1008.35
2023-03-15T06:58:22.441Z,1008.41
2023-03-15T06:59:22.410Z,1008.38
2023-03-15T07:00:22.394Z,1008.43
2023-03-15T07:01:22.448Z,1008.45
2023-03-15T07:02:22.442Z,1008.46
2023-03-15T07:03:22.440Z,1008.47
2023-03-15T07:04:22.354Z,1008.48
2023-03-15T07:05:22.354Z,1008.53
2023-03-15T07:06:22.364Z,1008.54
2023-03-15T07:07:22.344Z,1008.52
2023-03-15T07:08:22.314Z,1008.50
2023-03-15T07:09:22.308Z,1008.49
2023-03-15T07:10:22.294Z,1008.54
2023-03-15T07:11:22.286Z,1008.53
2023-03-15T07:12:22.305Z,1008.56
2023-03-15T07:13:22.291Z,1008.52
2023-03-15T07:14:22.250Z,1008.58
2023-03-15T07:15:22.250Z,1008.58
2023-03-15T07:16:22.275Z,1008.54
2023-03-15T07:17:22.223Z,1008.56
2023-03-15T07:18:22.266Z,1008.56
2023-03-15T07:19:22.231Z,1008.60
2023-03-15T07:20:22.186Z,1008.58
2023-03-15T07:21:22.184Z,1008.55
2023-03-15T07:22:22.199Z,1008.55
2023-03-15T07:23:22.167Z,1008.52
2023-03-15T07:24:22.145Z,1008.62
2023-03-15T07:25:22.141Z,1008.55
2023-03-15T07:26:22.133Z,1008.51
2023-03-15T07:27:22.142Z,1008.58
2023-03-15T07:28:22.117Z,1008.62
2023-03-15T07:29:22.100Z,1008.67
2023-03-15T07:30:22.081Z,1008.61
2023-03-15T07:31:22.097Z,1008.66
2023-03-15T07:32:22.303Z,1008.63
2023-03-15T07:33:22.080Z,1008.73
2023-03-15T07:34:22.042Z,1008.73
2023-03-15T07:35:22.061Z,1008.75
2023-03-15T07:36:22.023Z,1008.73
2023-03-15T07:37:22.037Z,1008.75
2023-03-15T07:38:22.000Z,1008.75
2023-03-15T07:39:21.996Z,1008.76
2023-03-15T07:40:22.014Z,1008.84
2023-03-15T07:41:22.001Z,1008.81
2023-03-15T07:42:21.952Z,1008.86
2023-03-15T07:43:21.962Z,1008.84
2023-03-15T07:44:21.927Z,1008.84
2023-03-15T07:45:21.922Z,1008.86
2023-03-15T07:46:21.956Z,1008.89
2023-03-15T07:47:21.896Z,1008.89
2023-03-15T07:48:21.903Z,1008.89
2023-03-15T07:49:21.887Z,1008.94
2023-03-15T07:50:21.868Z,1008.86
2023-03-15T07:51:21.885Z,1008.95
2023-03-15T07:52:21.852Z,1008.95
2023-03-15T07:53:21.876Z,1008.95
2023-03-15T07:54:21.820Z,1008.95
2023-03-15T07:55:21.815Z,1009.00
2023-03-15T07:56:21.817Z,1008.99
2023-03-15T07:57:21.789Z,1008.98
2023-03-15T07:58:21.786Z,1009.00
2023-03-15T07:59:21.767Z,1009.04
2023-03-15T08:00:21.755Z,1009.04
2023-03-15T08:01:21.771Z,1009.10
2023-03-15T08:02:21.821Z,1009.09
2023-03-15T08:03:21.843Z,1009.06
2023-03-15T08:04:21.714Z,1009.09
2023-03-15T08:05:21.721Z,1009.11
2023-03-15T08:06:21.712Z,1009.12
2023-03-15T08:07:21.780Z,1009.11
2023-03-15T08:08:21.665Z,1009.12
2023-03-15T08:09:21.657Z,1009.13
2023-03-15T08:10:21.651Z,1009.11
2023-03-15T08:11:21.671Z,1009.22
2023-03-15T08:12:21.632Z,1009.17
2023-03-15T08:13:21.618Z,1009.31
2023-03-15T08:14:21.610Z,1009.23
2023-03-15T08:15:21.597Z,1009.26
2023-03-15T08:16:21.648Z,1009.32
2023-03-15T08:17:21.600Z,1009.32
2023-03-15T08:18:21.557Z,1009.27
2023-03-15T08:19:21.552Z,1009.31
2023-03-15T08:20:21.541Z,1009.34
2023-03-15T08:21:21.537Z,1009.27
2023-03-15T08:22:21.524Z,1009.30
2023-03-15T08:23:21.562Z,1009.30
2023-03-15T08:24:21.505Z,1009.29
2023-03-15T08:25:21.502Z,1009.27
2023-03-15T08:26:21.477Z,1009.31
2023-03-15T08:27:21.488Z,1009.34
2023-03-15T08:28:21.476Z,1009.35
2023-03-15T08:29:21.477Z,1009.39
2023-03-15T08:30:21.447Z,1009.43
2023-03-15T08:31:21.457Z,1009.38
2023-03-15T08:32:21.516Z,1009.40
2023-03-15T08:33:21.427Z,1009.38
2023-03-15T08:34:21.390Z,1009.42
2023-03-15T08:35:21.463Z,1009.46
2023-03-15T08:36:21.479Z,1009.43
2023-03-15T08:37:21.358Z,1009.38
2023-03-15T08:38:21.380Z,1009.43
2023-03-15T08:39:21.365Z,1009.42
2023-03-15T08:40:21.324Z,1009.51
2023-03-15T08:41:21.325Z,1009.51
2023-03-15T08:42:21.309Z,1009.50
2023-03-15T08:43:21.316Z,1009.48
2023-03-15T08:44:21.294Z,1009.49
2023-03-15T08:45:21.290Z,1009.54
2023-03-15T08:46:21.380Z,1009.51
2023-03-15T08:47:21.257Z,1009.54
2023-03-15T08:48:21.238Z,1009.57
2023-03-15T08:49:21.237Z,1009.57
2023-03-15T08:50:21.234Z,1009.57
2023-03-15T08:51:21.231Z,1009.61
2023-03-15T08:52:21.195Z,1009.64
2023-03-15T08:53:21.231Z,1009.67
2023-03-15T08:54:21.178Z,1009.74
2023-03-15T08:55:21.213Z,1009.70
2023-03-15T08:56:21.185Z,1009.69
2023-03-15T08:57:21.148Z,1009.72
2023-03-15T08:58:21.139Z,1009.73
2023-03-15T08:59:31.298Z,1009.81
2023-03-15T09:00:22.135Z,1009.76
2023-03-15T09:01:21.097Z,1009.86
2023-03-15T09:02:21.224Z,1009.84
2023-03-15T09:03:21.075Z,1009.86
2023-03-15T09:04:21.138Z,1009.88
2023-03-15T09:05:21.140Z,1009.86
2023-03-15T09:06:21.036Z,1009.93
2023-03-15T09:07:21.037Z,1009.87
2023-03-15T09:08:21.131Z,1009.95
2023-03-15T09:09:21.057Z,1009.97
2023-03-15T09:10:20.994Z,1010.01
2023-03-15T09:11:21.019Z,1009.96
2023-03-15T09:12:20.976Z,1009.98
2023-03-15T09:13:20.968Z,1010.00
2023-03-15T09:14:20.980Z,1010.02
2023-03-15T09:15:20.954Z,1009.99
2023-03-15T09:16:21.041Z,1010.05
2023-03-15T09:17:20.924Z,1010.07
2023-03-15T09:18:20.906Z,1010.08
2023-03-15T09:19:20.924Z,1010.11
2023-03-15T09:20:20.902Z,1010.09
2023-03-15T09:21:20.904Z,1010.07
2023-03-15T09:22:37.851Z,1010.07
2023-03-15T09:23:21.860Z,1010.14
2023-03-15T09:24:20.859Z,1010.16
2023-03-15T09:25:20.836Z,1010.14
2023-03-15T09:26:20.859Z,1010.12
2023-03-15T09:27:20.892Z,1010.12
2023-03-15T09:28:20.820Z,1010.13
2023-03-15T09:29:20.809Z,1010.18
2023-03-15T09:30:20.789Z,1010.21
2023-03-15T09:31:20.838Z,1010.24
2023-03-15T09:32:20.771Z,1010.25
2023-03-15T09:33:20.759Z,1010.21
2023-03-15T09:34:21.851Z,1010.21
2023-03-15T09:35:20.755Z,1010.25
2023-03-15T09:36:20.756Z,1010.21
2023-03-15T09:37:20.719Z,1010.24
2023-03-15T09:38:20.707Z,1010.26
2023-03-15T09:39:20.698Z,1010.28
2023-03-15T09:40:20.685Z,1010.40
2023-03-15T09:41:20.675Z,1010.33
2023-03-15T09:42:20.683Z,1010.35
2023-03-15T09:43:20.673Z,1010.35
2023-03-15T09:44:20.641Z,1010.35
2023-03-15T09:45:20.626Z,1010.40
2023-03-15T09:46:20.686Z,1010.46
2023-03-15T09:47:20.607Z,1010.39
2023-03-15T09:48:20.617Z,1010.43
2023-03-15T09:49:20.587Z,1010.47
2023-03-15T09:50:20.581Z,1010.48
2023-03-15T09:51:20.602Z,1010.49
2023-03-15T09:52:20.558Z,1010.52
2023-03-15T09:53:20.544Z,1010.57
2023-03-15T09:54:20.531Z,1010.53
2023-03-15T09:55:20.560Z,1010.48
2023-03-15T09:56:20.517Z,1010.53
2023-03-15T09:57:20.523Z,1010.53
2023-03-15T09:58:20.489Z,1010.55
2023-03-15T09:59:20.501Z,1010.51
2023-03-15T10:00:20.479Z,1010.57
2023-03-15T10:01:20.539Z,1010.56
2023-03-15T10:02:20.476Z,1010.62
2023-03-15T10:03:20.512Z,1010.60
2023-03-15T10:04:20.428Z,1010.66
2023-03-15T10:05:20.415Z,1010.63
2023-03-15T10:06:20.409Z,1010.68
2023-03-15T10:07:20.406Z,1010.65
2023-03-15T10:08:20.414Z,1010.70
2023-03-15T10:09:20.373Z,1010.69
2023-03-15T10:10:20.372Z,1010.72
2023-03-15T10:11:20.354Z,1010.75
2023-03-15T10:12:20.360Z,1010.73
2023-03-15T10:13:20.360Z,1010.73
2023-03-15T10:14:20.323Z,1010.76
2023-03-15T10:15:20.343Z,1010.76
2023-03-15T10:16:20.353Z,1010.74
2023-03-15T10:17:20.287Z,1010.76
2023-03-15T10:18:20.305Z,1010.75
2023-03-15T10:19:20.271Z,1010.66
2023-03-15T10:20:20.266Z,1010.76
2023-03-15T10:21:20.252Z,1010.76
2023-03-15T10:22:20.246Z,1010.71
2023-03-15T10:23:20.254Z,1010.72
2023-03-15T10:24:20.215Z,1010.75
2023-03-15T10:25:20.203Z,1010.73
2023-03-15T10:26:20.194Z,1010.74
2023-03-15T10:27:20.193Z,1010.67
2023-03-15T10:28:20.193Z,1010.74
2023-03-15T10:29:20.170Z,1010.67
2023-03-15T10:30:20.260Z,1010.73
2023-03-15T10:31:22.900Z,1010.72
2023-03-15T10:32:21.128Z,1010.73
2023-03-15T10:33:20.156Z,1010.74
2023-03-15T10:34:20.112Z,1010.70
2023-03-15T10:35:20.106Z,1010.76
2023-03-15T10:36:20.123Z,1010.81
2023-03-15T10:37:20.075Z,1010.79
2023-03-15T10:38:20.084Z,1010.68
2023-03-15T10:39:20.050Z,1010.81
2023-03-15T10:40:20.109Z,1010.80
2023-03-15T10:41:28.495Z,1010.74
2023-03-15T10:42:20.019Z,1010.80
2023-03-15T10:43:20.020Z,1010.86
2023-03-15T10:44:20.034Z,1010.81
2023-03-15T10:45:19.978Z,1010.81
2023-03-15T10:46:20.005Z,1010.83
2023-03-15T10:47:24.127Z,1010.86
2023-03-15T10:48:19.949Z,1010.86
2023-03-15T10:49:19.949Z,1010.90
2023-03-15T10:50:19.974Z,1010.83
2023-03-15T10:51:19.907Z,1010.79
2023-03-15T10:52:19.920Z,1010.87
2023-03-15T10:53:19.891Z,1010.80
2023-03-15T10:54:19.880Z,1010.79
2023-03-15T10:55:19.863Z,1010.82
2023-03-15T10:56:19.860Z,1010.87
2023-03-15T10:57:19.872Z,1010.86
2023-03-15T10:58:19.841Z,1010.78
2023-03-15T10:59:19.840Z,1010.86
2023-03-15T11:00:19.856Z,1010.85
2023-03-15T11:01:19.825Z,1010.92
2023-03-15T11:02:19.816Z,1010.84
2023-03-15T11:03:19.803Z,1010.89
2023-03-15T11:04:19.770Z,1010.86
2023-03-15T11:05:19.784Z,1010.89
2023-03-15T11:06:19.757Z,1010.94
2023-03-15T11:07:19.763Z,1010.86
2023-03-15T11:08:19.738Z,1010.93
2023-03-15T11:09:19.715Z,1010.97
2023-03-15T11:10:19.713Z,1010.94
2023-03-15T11:11:19.705Z,1010.90
2023-03-15T11:12:19.709Z,1011.06
2023-03-15T11:13:19.675Z,1011.11
2023-03-15T11:14:19.674Z,1011.00
2023-03-15T11:15:19.653Z,1011.02
2023-03-15T11:16:19.728Z,1010.99
2023-03-15T11:17:19.631Z,1011.00
2023-03-15T11:18:19.633Z,1011.07
2023-03-15T11:19:19.634Z,1011.13
2023-03-15T11:20:19.625Z,1011.10
2023-03-15T11:21:19.621Z,1010.98
2023-03-15T11:22:19.589Z,1011.01
2023-03-15T11:23:19.560Z,1011.09
2023-03-15T11:24:19.653Z,1011.05
2023-03-15T11:25:19.540Z,1011.00
2023-03-15T11:26:31.514Z,1011.18
2023-03-15T11:27:20.525Z,1011.31
2023-03-15T11:28:19.512Z,1011.20
2023-03-15T11:29:19.514Z,1011.19
2023-03-15T11:30:19.491Z,1010.98
2023-03-15T11:31:19.578Z,1011.00
2023-03-15T11:32:19.469Z,1010.98
2023-03-15T11:33:19.459Z,1010.95
2023-03-15T11:34:19.446Z,1011.07
2023-03-15T11:35:19.498Z,1011.02
2023-03-15T11:36:19.428Z,1011.01
2023-03-15T11:37:19.406Z,1011.05
2023-03-15T11:38:19.405Z,1011.05
2023-03-15T11:39:19.445Z,1010.93
2023-03-15T11:40:19.550Z,1010.91
2023-03-15T11:41:19.370Z,1011.02
2023-03-15T11:42:19.359Z,1010.95
2023-03-15T11:43:19.378Z,1011.02
2023-03-15T11:44:19.360Z,1011.03
2023-03-15T11:45:19.324Z,1010.95
2023-03-15T11:46:19.318Z,1011.01
2023-03-15T11:47:19.307Z,1010.99
2023-03-15T11:48:19.302Z,1011.08
2023-03-15T11:49:19.305Z,1011.00
2023-03-15T11:50:19.307Z,1011.02
2023-03-15T11:51:19.298Z,1011.02
2023-03-15T11:52:19.254Z,1011.01
2023-03-15T11:53:19.244Z,1011.07
2023-03-15T11:54:19.234Z,1011.07
2023-03-15T11:55:19.267Z,1011.08
2023-03-15T11:56:19.213Z,1011.06
2023-03-15T11:57:19.200Z,1011.09
2023-03-15T11:58:19.192Z,1011.10
2023-03-15T11:59:19.172Z,1011.11
2023-03-15T12:00:19.314Z,1011.05
2023-03-15T12:01:19.148Z,1011.11
2023-03-15T12:02:19.203Z,1011.07
2023-03-15T12:03:19.165Z,1011.05
2023-03-15T12:04:19.120Z,1011.05
2023-03-15T12:05:19.137Z,1011.09